Time;durP1;ratioP1;P1;durP2;ratioP2;P2;SDS_P1;SDS_P2;PMS_P1;PMS_P2;Temp;Humidity;BMP_temperature;BMP_pressure;BME280_temperature;BME280_humidity;BME280_pressure;Samples;Min_cycle;Max_cycle;Signal;HPM_P1;HPM_P2
2022/05/01 00:02:06;;;;;;;11.78;7.60;;;;;;;6.50;65.42;101079.90;1700495;83;21054;-69
2022/05/01 00:04:32;;;;;;;;;;;;;;;6.46;65.68;101082.50;1705915;83;21551;-68
2022/05/01 00:06:59;;;;;;;7.33;6.62;;;;;;;6.46;65.91;101081.17;1702961;83;20141;-69
2022/05/01 00:09:26;;;;;;;10.87;8.40;;;;;;;6.40;66.14;101080.78;1703693;83;21069;-70
2022/05/01 00:11:53;;;;;;;14.05;11.63;;;;;;;6.38;66.27;101081.39;1689466;83;21026;-70
2022/05/01 00:14:19;;;;;;;17.20;13.77;;;;;;;6.38;66.40;101090.66;1684745;84;21118;-69
2022/05/01 00:16:49;;;;;;;11.63;9.17;;;;;;;6.39;66.85;101094.16;1684872;84;21031;-70
2022/05/01 00:19:16;;;;;;;11.00;8.07;;;;;;;6.44;66.83;101094.55;1683946;84;21148;-69
2022/05/01 00:21:42;;;;;;;12.77;9.63;;;;;;;6.49;66.64;101088.84;1686276;84;21562;-68
2022/05/01 00:24:08;;;;;;;11.35;9.48;;;;;;;6.48;66.48;101096.42;1703777;82;20984;-69
2022/05/01 00:26:35;;;;;;;9.58;8.43;;;;;;;6.52;67.13;101098.66;1707038;82;21096;-69
2022/05/01 00:29:05;;;;;;;19.90;8.67;;;;;;;6.56;66.85;101095.24;1706721;82;21590;-69
2022/05/01 00:31:33;;;;;;;9.80;7.93;;;;;;;6.57;66.82;101091.59;1708051;82;21053;-69
2022/05/01 00:36:44;;;;;;;10.50;8.93;;;;;;;6.51;66.80;101104.09;1726434;82;21130;-68
2022/05/01 00:39:10;;;;;;;11.43;8.95;;;;;;;6.41;67.00;101104.95;1707838;82;21074;-69
2022/05/01 00:44:41;;;;;;;16.33;10.73;;;;;;;6.28;67.56;101104.91;1781026;78;22869;-69
2022/05/01 00:47:07;;;;;;;17.00;9.75;;;;;;;6.17;67.75;101109.86;1699740;83;21489;-69
2022/05/01 00:49:33;;;;;;;9.28;8.35;;;;;;;6.09;67.79;101107.09;1704689;83;21047;-69
2022/05/01 00:52:09;;;;;;;11.08;9.55;;;;;;;6.02;68.01;101108.95;1697246;83;21043;-69
2022/05/01 00:54:39;;;;;;;13.72;10.32;;;;;;;5.96;68.26;101106.88;1699644;83;21173;-70
2022/05/01 00:57:07;;;;;;;15.43;10.83;;;;;;;5.94;68.38;101106.15;1746238;82;21077;-69
2022/05/01 00:59:37;;;;;;;11.23;10.07;;;;;;;5.92;68.79;101104.13;1730922;81;21078;-70
2022/05/01 01:02:05;;;;;;;14.30;10.87;;;;;;;5.92;68.90;101108.59;1684549;83;21478;-68
2022/05/01 01:04:33;;;;;;;14.20;10.77;;;;;;;5.92;69.14;101111.23;1687298;83;21014;-69
2022/05/01 01:06:59;;;;;;;14.50;11.20;;;;;;;5.92;69.29;101110.74;1703931;83;21077;-69
2022/05/01 01:09:26;;;;;;;14.67;11.27;;;;;;;5.91;69.29;101114.84;1703447;83;21050;-69
2022/05/01 01:14:40;;;;;;;16.27;11.50;;;;;;;5.84;69.53;101113.26;1715730;83;20438;-69
2022/05/01 01:17:07;;;;;;;13.67;10.73;;;;;;;5.73;69.68;101114.22;1695613;82;21517;-69
2022/05/01 01:19:33;;;;;;;15.95;11.83;;;;;;;5.69;70.01;101114.14;1715436;82;21030;-69
2022/05/01 01:21:59;;;;;;;15.10;12.60;;;;;;;5.66;70.13;101116.56;1715913;83;21068;-69
2022/05/01 01:24:27;;;;;;;13.77;12.03;;;;;;;5.62;70.24;101115.66;1704449;83;21053;-69
2022/05/01 01:26:54;;;;;;;15.20;10.93;;;;;;;5.60;70.48;101110.50;1725121;83;21042;-69
2022/05/01 01:32:09;;;;;;;16.50;12.23;;;;;;;5.62;70.60;101110.38;1685593;83;21661;-70
2022/05/01 01:34:37;;;;;;;13.67;11.57;;;;;;;5.61;70.64;101110.87;1686855;84;21057;-69
2022/05/01 01:37:06;;;;;;;16.33;12.30;;;;;;;5.25;70.65;101056.79;1672956;84;21051;-68
2022/05/01 01:39:34;;;;;;;17.50;12.13;;;;;;;5.57;70.71;101114.73;1666436;84;21664;-69
2022/05/01 01:42:07;;;;;;;;;;;;;;;5.58;70.82;101116.91;1661984;84;21563;-69
2022/05/01 01:44:37;;;;;;;16.87;11.97;;;;;;;5.60;70.92;101117.12;1670551;84;20132;-69
2022/05/01 01:47:06;;;;;;;17.53;11.73;;;;;;;5.62;71.04;101120.46;1689186;83;21549;-67
2022/05/01 01:49:32;;;;;;;15.30;12.40;;;;;;;5.67;70.98;101118.74;1705650;83;21462;-69
2022/05/01 01:51:58;;;;;;;12.07;10.72;;;;;;;5.71;70.97;101116.62;1704069;83;21121;-68
2022/05/01 01:54:24;;;;;;;14.25;11.85;;;;;;;5.70;71.01;101122.91;1695731;83;21150;-68
2022/05/01 01:56:51;;;;;;;14.50;11.60;;;;;;;5.69;70.99;101119.44;1674990;84;21074;-70
2022/05/01 01:59:18;;;;;;;15.88;11.33;;;;;;;5.70;70.97;101124.23;1673318;83;21112;-68
2022/05/01 02:01:44;;;;;;;12.53;11.00;;;;;;;5.71;71.02;101121.45;1694957;83;22177;-68
2022/05/01 02:04:11;;;;;;;15.35;11.57;;;;;;;5.71;71.09;101128.53;1694904;83;21097;-69
2022/05/01 02:06:38;;;;;;;14.68;11.88;;;;;;;5.68;71.12;101129.66;1677745;83;21049;-68
2022/05/01 02:09:07;;;;;;;14.17;12.33;;;;;;;5.70;71.37;101128.20;1695156;83;21117;-70
2022/05/01 02:11:37;;;;;;;17.60;11.30;;;;;;;5.71;71.44;101129.86;1694959;83;21072;-69
2022/05/01 02:14:05;;;;;;;14.80;11.47;;;;;;;5.70;71.47;101126.88;1694917;83;21669;-69
2022/05/01 02:16:32;;;;;;;12.90;10.73;;;;;;;5.66;71.49;101128.46;1694782;83;21086;-69
2022/05/01 02:18:58;;;;;;;17.65;12.90;;;;;;;5.61;71.62;101129.84;1695300;83;21031;-68
2022/05/01 02:21:36;;;;;;;13.45;11.88;;;;;;;5.54;71.76;101136.19;1691754;83;21636;-69
2022/05/01 02:24:07;;;;;;;14.33;12.60;;;;;;;5.46;72.01;101134.22;1692436;83;21561;-68
2022/05/01 02:26:35;;;;;;;15.20;12.37;;;;;;;5.38;72.26;101134.53;1718972;83;21058;-69
2022/05/01 02:29:03;;;;;;;16.47;12.83;;;;;;;5.33;72.88;101134.09;1716562;83;21060;-69
2022/05/01 02:31:32;;;;;;;14.83;12.53;;;;;;;5.31;73.00;101136.03;1706344;82;21029;-69
2022/05/01 02:33:58;;;;;;;15.03;13.37;;;;;;;5.30;73.24;101140.50;1705531;82;21045;-69
2022/05/01 02:36:26;;;;;;;19.73;13.37;;;;;;;5.31;73.34;101141.33;1706519;83;21107;-69
2022/05/01 02:38:52;;;;;;;13.00;11.45;;;;;;;5.30;73.47;101137.85;1708655;83;21029;-69
2022/05/01 02:41:18;;;;;;;18.67;13.40;;;;;;;5.32;73.55;101141.69;1719616;83;21214;-69
2022/05/01 02:43:45;;;;;;;15.90;12.90;;;;;;;5.33;73.59;101145.52;1707570;82;21191;-69
2022/05/01 02:46:12;;;;;;;15.08;11.65;;;;;;;5.33;73.68;101141.56;1682784;84;21026;-68
2022/05/01 02:48:38;;;;;;;14.70;12.18;;;;;;;5.35;73.81;101140.94;1679626;85;21063;-69
2022/05/01 02:51:04;;;;;;;17.50;13.15;;;;;;;5.39;73.87;101134.89;1676178;85;21074;-69
2022/05/01 02:53:32;;;;;;;14.27;12.27;;;;;;;5.40;73.81;101136.55;1673001;84;21035;-69
2022/05/01 02:56:01;;;;;;;20.37;11.80;;;;;;;5.39;73.87;101140.19;1676462;84;21582;-69
2022/05/01 02:58:30;;;;;;;15.25;11.75;;;;;;;5.39;74.15;101141.02;1674591;84;21129;-69
2022/05/01 03:00:58;;;;;;;13.47;11.70;;;;;;;5.51;74.54;101138.26;1689262;83;21020;-69
2022/05/01 03:03:24;;;;;;;14.70;11.30;;;;;;;5.76;74.57;101142.20;1704404;83;21138;-69
2022/05/01 03:05:52;;;;;;;17.85;12.23;;;;;;;6.12;73.98;101139.88;1704548;83;21024;-70
2022/05/01 03:08:21;;;;;;;17.63;11.37;;;;;;;6.56;73.01;101133.16;1699028;83;21003;-70
2022/05/01 03:10:49;;;;;;;14.43;11.23;;;;;;;7.07;71.34;101138.17;1692647;84;21026;-71
2022/05/01 03:13:17;;;;;;;12.45;11.08;;;;;;;7.55;69.67;101130.44;1672906;84;21531;-72
2022/05/01 03:15:43;;;;;;;16.73;11.77;;;;;;;8.04;68.19;101136.73;1664599;84;21614;-71
2022/05/01 03:23:39;;;;;;;14.00;11.77;;;;;;;9.61;62.45;101141.53;1648109;84;21541;-72
2022/05/01 03:26:06;;;;;;;11.60;10.43;;;;;;;10.13;60.74;101138.63;1671882;85;21074;-70
2022/05/01 03:28:33;;;;;;;18.17;11.57;;;;;;;10.59;59.45;101141.30;1681008;84;21012;-72
2022/05/01 03:30:59;;;;;;;12.73;11.30;;;;;;;11.00;58.08;101139.38;1668244;84;21130;-71
2022/05/01 03:33:26;;;;;;;13.48;11.53;;;;;;;11.39;56.78;101134.54;1655911;84;22031;-70
2022/05/01 03:35:53;;;;;;;12.20;11.00;;;;;;;11.82;54.74;101143.49;1645099;84;21053;-73
2022/05/01 03:38:20;;;;;;;12.63;10.50;;;;;;;12.26;53.54;101140.19;1647964;84;21053;-72
2022/05/01 03:40:47;;;;;;;13.98;11.28;;;;;;;12.68;52.51;101144.17;1658262;84;21457;-71
2022/05/01 03:43:16;;;;;;;14.73;10.58;;;;;;;13.05;51.24;101139.75;1667674;84;21140;-71
2022/05/01 03:45:42;;;;;;;12.18;10.53;;;;;;;13.43;50.57;101144.52;1681193;84;21015;-71
2022/05/01 03:48:08;;;;;;;;;;;;;;;13.77;49.63;101143.56;1687713;84;21147;-69
2022/05/01 03:50:36;;;;;;;14.13;11.53;;;;;;;14.10;48.05;101139.86;1684122;85;20123;-71
2022/05/01 03:53:04;;;;;;;12.37;11.08;;;;;;;14.39;47.56;101137.55;1659479;84;21171;-72
2022/05/01 03:55:36;;;;;;;11.97;10.85;;;;;;;14.72;46.52;101135.64;1682070;84;21048;-72
2022/05/01 03:58:03;;;;;;;13.80;11.45;;;;;;;15.05;45.71;101135.03;1663846;86;21505;-72
2022/05/01 04:00:31;;;;;;;14.35;11.18;;;;;;;15.20;45.01;101132.22;1665183;85;21077;-71
2022/05/01 04:02:57;;;;;;;14.28;11.97;;;;;;;15.14;44.87;101131.66;1685147;84;21070;-70
2022/05/01 04:05:23;;;;;;;12.78;11.48;;;;;;;14.75;45.30;101139.28;1638382;86;21178;-72
2022/05/01 04:07:49;;;;;;;15.20;12.68;;;;;;;14.19;45.91;101141.39;1674959;84;21393;-69
2022/05/01 04:10:15;;;;;;;13.62;11.73;;;;;;;13.29;46.64;101091.77;1667634;84;21132;-72
2022/05/01 04:12:43;;;;;;;;;;;;;;;13.04;47.85;101152.83;1681774;84;21026;-70
2022/05/01 04:15:11;;;;;;;;;;;;;;;12.56;48.95;101150.45;1679496;85;20138;-68
2022/05/01 04:17:40;;;;;;;16.30;13.43;;;;;;;12.14;50.33;101152.33;1653596;86;20201;-71
2022/05/01 04:20:14;;;;;;;20.45;13.03;;;;;;;11.75;51.51;101148.70;1625861;88;21058;-71
2022/05/01 04:22:45;;;;;;;16.35;13.58;;;;;;;11.53;52.24;101148.16;1608302;86;21018;-71
2022/05/01 04:25:20;;;;;;;16.80;14.17;;;;;;;11.33;53.20;101153.92;1694564;84;21091;-70
2022/05/01 04:27:52;;;;;;;15.53;12.55;;;;;;;11.17;54.45;101156.64;1691975;83;21164;-69
2022/05/01 04:30:20;;;;;;;18.83;14.07;;;;;;;11.01;55.45;101163.70;1682461;84;21506;-70
2022/05/01 04:32:54;;;;;;;20.67;14.50;;;;;;;10.87;56.19;101169.25;1681343;84;21012;-70
2022/05/01 04:35:37;;;;;;;23.03;14.97;;;;;;;10.75;56.30;101173.25;1665090;85;21083;-71
2022/05/01 04:38:10;;;;;;;18.53;15.07;;;;;;;10.59;56.58;101174.12;1665741;85;21525;-70
2022/05/01 04:40:40;;;;;;;20.47;14.77;;;;;;;10.49;56.53;101178.30;1664715;85;22242;-70
2022/05/01 04:43:12;;;;;;;18.93;14.87;;;;;;;10.44;56.74;101173.13;1678530;85;21603;-71
2022/05/01 04:45:42;;;;;;;17.43;14.13;;;;;;;10.39;56.79;101172.79;1669891;84;21040;-71
2022/05/01 04:48:11;;;;;;;20.60;15.43;;;;;;;10.36;57.98;101172.64;1665282;85;21080;-71
2022/05/01 04:50:38;;;;;;;18.07;15.73;;;;;;;10.33;58.87;101177.78;1664055;85;21121;-70
2022/05/01 04:53:07;;;;;;;25.53;15.13;;;;;;;10.30;58.83;101168.80;1664141;85;21150;-70
2022/05/01 04:55:33;;;;;;;18.03;16.07;;;;;;;10.31;58.89;101177.62;1664858;84;21622;-71
2022/05/01 04:57:59;;;;;;;;;;;;;;;10.34;58.90;101171.97;1666845;85;21587;-71
2022/05/01 05:00:26;;;;;;;19.00;14.60;;;;;;;10.39;59.40;101174.12;1620068;86;20157;-70
2022/05/01 05:02:54;;;;;;;18.73;15.00;;;;;;;10.40;59.61;101169.97;1664217;85;21950;-69
2022/05/01 05:05:21;;;;;;;18.93;15.10;;;;;;;10.51;59.56;101171.47;1664220;85;21253;-70
2022/05/01 05:07:48;;;;;;;17.70;15.27;;;;;;;10.74;59.07;101166.27;1665112;85;21408;-71
2022/05/01 05:10:16;;;;;;;17.23;14.43;;;;;;;11.01;58.60;101167.70;1665366;85;21135;-72
2022/05/01 05:12:46;;;;;;;15.70;14.03;;;;;;;11.26;57.64;101160.95;1664163;85;21020;-71
2022/05/01 05:15:16;;;;;;;21.00;14.90;;;;;;;11.47;56.67;101170.56;1664116;85;21080;-71
2022/05/01 05:17:44;;;;;;;19.63;15.07;;;;;;;11.64;56.65;101165.97;1664622;85;21044;-72
2022/05/01 05:20:12;;;;;;;15.40;13.73;;;;;;;11.93;55.76;101165.00;1664283;85;21097;-71
2022/05/01 05:22:42;;;;;;;22.70;15.17;;;;;;;12.19;55.24;101164.66;1664747;85;21004;-70
2022/05/01 05:25:12;;;;;;;22.23;13.77;;;;;;;12.43;54.69;101163.61;1664873;85;21548;-71
2022/05/01 05:27:38;;;;;;;19.67;13.90;;;;;;;12.70;53.89;101164.88;1664346;85;21121;-70
2022/05/01 05:30:05;;;;;;;;;;;;;;;13.11;53.36;101162.27;1668172;85;21045;-71
2022/05/01 05:32:32;;;;;;;;;;;;;;;13.69;51.52;101159.22;1667594;85;20183;-72
2022/05/01 05:34:58;;;;;;;14.78;12.03;;;;;;;14.32;50.47;101159.45;1664397;85;20235;-71
2022/05/01 05:37:24;;;;;;;;;;;;;;;14.90;47.78;101156.63;1667090;85;21036;-72
2022/05/01 05:39:50;;;;;;;14.53;10.72;;;;;;;15.59;44.65;101153.53;1664545;85;20131;-72
2022/05/01 05:42:18;;;;;;;9.68;8.18;;;;;;;16.12;41.42;101152.86;1664661;85;21060;-71
2022/05/01 05:44:44;;;;;;;8.78;7.42;;;;;;;16.52;40.19;101150.21;1664314;85;21012;-74
2022/05/01 05:47:10;;;;;;;9.00;6.87;;;;;;;17.00;37.60;101151.82;1664772;85;21079;-73
2022/05/01 05:49:36;;;;;;;8.58;7.65;;;;;;;17.12;36.98;101154.16;1664566;85;21176;-72
2022/05/01 05:52:04;;;;;;;9.13;7.83;;;;;;;17.20;37.08;101154.47;1664595;85;21080;-72
2022/05/01 05:54:30;;;;;;;8.40;6.85;;;;;;;17.06;36.97;101146.40;1665873;85;21583;-73
2022/05/01 05:56:57;;;;;;;9.98;6.87;;;;;;;16.92;37.09;101148.31;1616111;87;22254;-71
2022/05/01 05:59:23;;;;;;;7.47;6.67;;;;;;;17.03;36.93;101156.80;1662726;86;21068;-72
2022/05/01 06:01:49;;;;;;;5.33;4.33;;;;;;;17.36;35.70;101153.97;1671096;84;21087;-73
2022/05/01 06:04:16;;;;;;;5.45;4.75;;;;;;;17.48;33.34;101147.42;1681223;83;21112;-71
2022/05/01 06:06:42;;;;;;;7.97;4.53;;;;;;;17.58;32.45;101143.73;1685457;83;21029;-73
2022/05/01 06:09:09;;;;;;;6.28;4.80;;;;;;;17.69;33.38;101147.62;1685820;83;21044;-73
2022/05/01 06:11:36;;;;;;;5.15;3.47;;;;;;;17.95;32.73;101146.67;1684428;83;21059;-72
2022/05/01 06:14:03;;;;;;;2.87;2.52;;;;;;;18.24;32.38;101139.80;1675451;83;21087;-71
2022/05/01 06:16:31;;;;;;;;;;;;;;;18.53;30.30;101139.36;1688217;84;21100;-74
2022/05/01 06:19:02;;;;;;;4.62;3.95;;;;;;;18.63;30.38;101137.81;1677877;83;20307;-72
2022/05/01 06:21:28;;;;;;;5.58;3.27;;;;;;;18.74;30.73;101141.67;1686111;84;21076;-71
2022/05/01 06:23:54;;;;;;;;;;;;;;;19.02;30.45;101140.35;1692671;83;21122;-71
2022/05/01 06:26:20;;;;;;;2.17;1.65;;;;;;;19.31;30.25;101139.28;1690367;83;20142;-72
2022/05/01 06:28:47;;;;;;;2.33;2.12;;;;;;;19.34;29.45;101136.14;1691112;83;21035;-72
2022/05/01 06:31:16;;;;;;;2.75;1.80;;;;;;;19.30;28.17;101133.06;1690911;83;21075;-73
2022/05/01 06:33:46;;;;;;;3.27;2.70;;;;;;;19.13;28.90;101138.78;1698262;83;21054;-73
2022/05/01 06:36:15;;;;;;;4.35;2.87;;;;;;;19.19;28.78;101133.31;1695378;83;21007;-72
2022/05/01 06:38:43;;;;;;;7.25;5.42;;;;;;;19.29;29.80;101130.58;1690110;83;21219;-72
2022/05/01 06:41:09;;;;;;;8.65;7.22;;;;;;;19.41;29.23;101138.23;1690229;83;21098;-72
2022/05/01 06:43:36;;;;;;;6.17;5.60;;;;;;;19.41;29.31;101135.53;1665725;85;21033;-72
2022/05/01 06:46:02;;;;;;;;;;;;;;;19.50;29.04;101132.81;1692609;83;21139;-74
2022/05/01 06:48:28;;;;;;;5.67;4.95;;;;;;;19.70;28.80;101132.53;1691182;83;20167;-71
2022/05/01 06:50:54;;;;;;;6.90;4.80;;;;;;;19.80;28.99;101127.97;1690194;83;21044;-73
2022/05/01 06:53:21;;;;;;;6.62;4.62;;;;;;;19.90;29.02;101128.77;1690133;83;22297;-72
2022/05/01 06:55:48;;;;;;;4.67;3.83;;;;;;;19.97;28.48;101125.43;1690792;83;21059;-73
2022/05/01 06:58:14;;;;;;;5.35;4.85;;;;;;;20.00;27.97;101131.72;1658075;85;21079;-73
2022/05/01 07:00:40;;;;;;;6.80;5.85;;;;;;;20.13;27.97;101127.98;1656844;85;21060;-72
2022/05/01 07:03:07;;;;;;;2.75;2.55;;;;;;;20.19;26.92;101131.95;1631197;86;21618;-73
2022/05/01 07:05:33;;;;;;;;;;;;;;;19.77;26.15;101130.59;1657060;85;21004;-73
2022/05/01 07:07:59;;;;;;;3.47;1.50;;;;;;;19.41;27.53;101128.24;1668012;84;20108;-73
2022/05/01 07:10:25;;;;;;;3.65;1.67;;;;;;;19.23;26.32;101121.00;1666723;84;21080;-71
2022/05/01 07:12:51;;;;;;;2.85;1.10;;;;;;;19.05;26.43;101120.47;1646717;85;21116;-72
2022/05/01 07:15:17;;;;;;;4.10;1.87;;;;;;;18.80;26.79;101131.34;1649115;85;21090;-72
2022/05/01 07:17:44;;;;;;;1.70;1.55;;;;;;;18.63;27.15;101132.42;1650634;85;21109;-72
2022/05/01 07:20:12;;;;;;;;;;;;;;;18.47;27.87;101129.74;1654310;85;21352;-71
2022/05/01 07:22:38;;;;;;;1.25;1.02;;;;;;;18.26;27.63;101130.15;1650474;85;20149;-72
2022/05/01 07:25:07;;;;;;;3.02;0.60;;;;;;;17.88;27.75;101129.70;1666084;85;21076;-72
2022/05/01 07:27:33;;;;;;;1.98;1.00;;;;;;;17.71;28.07;101130.17;1655584;85;21040;-72
2022/05/01 07:30:00;;;;;;;0.75;0.50;;;;;;;17.60;28.35;101132.73;1661116;85;21739;-71
2022/05/01 07:32:27;;;;;;;1.02;0.65;;;;;;;17.55;28.20;101133.89;1656833;85;21099;-72
2022/05/01 07:34:55;;;;;;;;;;;;;;;17.52;29.10;101127.08;1618594;85;21641;-72
2022/05/01 07:37:24;;;;;;;1.20;0.37;;;;;;;17.54;28.37;101126.83;1598661;89;20158;-72
2022/05/01 07:39:49;;;;;;;2.60;0.10;;;;;;;17.46;28.48;101122.02;1649471;85;21649;-71
2022/05/01 07:42:15;;;;;;;1.42;0.68;;;;;;;17.37;27.89;101127.34;1649352;85;21580;-71
2022/05/01 07:44:41;;;;;;;2.85;1.20;;;;;;;17.30;28.06;101128.70;1657846;85;21651;-71
2022/05/01 07:47:08;;;;;;;0.30;0.30;;;;;;;17.25;27.44;101124.50;1705665;84;22090;-71
2022/05/01 07:49:33;;;;;;;;;;;;;;;17.16;28.59;101120.89;1711505;83;21152;-72
2022/05/01 07:52:00;;;;;;;2.05;0.82;;;;;;;17.14;28.10;101119.78;1708879;83;20195;-71
2022/05/01 07:54:26;;;;;;;1.25;0.40;;;;;;;17.05;27.91;101119.17;1698271;84;21101;-72
2022/05/01 07:56:52;;;;;;;0.60;0.40;;;;;;;16.99;27.95;101121.37;1682268;84;21058;-72
2022/05/01 07:59:18;;;;;;;1.45;0.47;;;;;;;16.70;27.85;101124.80;1684310;84;21096;-71
2022/05/01 08:01:44;;;;;;;0.40;0.40;;;;;;;16.42;28.16;101112.94;1681111;84;21135;-70
2022/05/01 08:04:29;;;;;;;2.67;1.02;;;;;;;16.30;29.05;101117.30;1699811;84;21031;-69
2022/05/01 08:07:02;;;;;;;2.45;0.40;;;;;;;16.29;29.29;101116.48;1672163;84;21046;-71
2022/05/01 08:09:30;;;;;;;2.70;0.50;;;;;;;16.27;29.29;101113.14;1708560;83;21160;-71
2022/05/01 08:11:57;;;;;;;0.80;0.30;;;;;;;16.33;29.31;101107.45;1687678;83;21513;-71
2022/05/01 08:14:23;;;;;;;1.77;0.30;;;;;;;16.45;28.75;101113.05;1697168;84;21063;-71
2022/05/01 08:16:50;;;;;;;;;;;;;;;16.59;28.58;101109.82;1704328;84;21118;-72
2022/05/01 08:22:05;;;;;;;1.22;0.82;;;;;;;16.79;28.08;101101.72;1708818;84;21006;-72
2022/05/01 08:24:34;;;;;;;0.88;0.47;;;;;;;16.88;28.00;101097.27;1665820;84;21067;-70
2022/05/01 08:27:07;;;;;;;0.62;0.20;;;;;;;16.95;27.24;101100.45;1699228;84;20988;-71
2022/05/01 08:29:37;;;;;;;1.40;0.20;;;;;;;16.92;26.83;101098.49;1712736;84;21054;-72
2022/05/01 08:32:04;;;;;;;1.65;0.62;;;;;;;16.91;27.25;101091.47;1697358;84;22152;-72
2022/05/01 08:34:31;;;;;;;0.57;0.45;;;;;;;16.96;27.28;101098.08;1682919;84;21088;-70
2022/05/01 08:36:57;;;;;;;;;;;;;;;16.96;27.02;101092.17;1692642;83;21084;-72
2022/05/01 08:39:23;;;;;;;2.55;0.30;;;;;;;16.84;27.13;101093.34;1708642;84;20135;-72
2022/05/01 08:41:50;;;;;;;1.57;0.40;;;;;;;16.66;27.20;101097.19;1686154;83;21082;-73
2022/05/01 08:44:22;;;;;;;1.50;0.37;;;;;;;16.60;27.69;101083.23;1690307;84;21182;-71
2022/05/01 08:47:23;;;;;;;1.60;0.80;;;;;;;16.54;27.71;101081.67;1660872;84;21110;-72
2022/05/01 08:49:58;;;;;;;2.35;0.55;;;;;;;16.52;28.06;101085.63;1663357;84;21831;-71
2022/05/01 08:52:27;;;;;;;2.90;0.42;;;;;;;16.42;27.66;101084.68;1678140;84;21199;-74
2022/05/01 08:54:56;;;;;;;0.93;0.33;;;;;;;16.27;27.38;101090.80;1678191;84;21110;-71
2022/05/01 08:57:23;;;;;;;0.62;0.35;;;;;;;16.10;27.71;101079.63;1680953;84;21006;-73
2022/05/01 08:59:53;;;;;;;1.20;0.40;;;;;;;16.02;28.08;101084.70;1679572;84;21084;-70
2022/05/01 09:02:21;;;;;;;1.65;0.45;;;;;;;16.01;27.97;101083.06;1683780;84;21127;-69
2022/05/01 09:04:49;;;;;;;0.50;0.20;;;;;;;15.96;28.13;101078.81;1688608;84;21059;-72
2022/05/01 09:07:15;;;;;;;1.45;0.20;;;;;;;15.89;28.55;101088.72;1682190;84;21111;-71
2022/05/01 09:09:43;;;;;;;0.37;0.10;;;;;;;15.82;28.62;101080.64;1682613;84;21032;-71
2022/05/01 09:14:56;;;;;;;0.60;0.20;;;;;;;15.80;29.04;101075.98;1666436;84;21086;-71
2022/05/01 09:17:23;;;;;;;1.50;0.28;;;;;;;15.88;28.82;101077.64;1682865;84;21593;-72
2022/05/01 09:20:08;;;;;;;4.03;1.05;;;;;;;15.93;28.87;101069.80;1683689;84;21054;-70
2022/05/01 09:22:52;;;;;;;4.58;0.30;;;;;;;16.05;29.03;101070.00;1693644;84;20998;-72
2022/05/01 09:25:22;;;;;;;0.72;0.20;;;;;;;16.16;28.60;101072.07;1681946;84;21042;-71
2022/05/01 09:27:54;;;;;;;2.87;0.30;;;;;;;16.23;28.54;101067.52;1681026;84;21399;-71
2022/05/01 09:30:21;;;;;;;1.75;0.20;;;;;;;16.25;28.38;101070.01;1694591;84;21194;-72
2022/05/01 09:32:48;;;;;;;3.58;0.33;;;;;;;16.26;28.33;101071.16;1684229;84;21147;-72
2022/05/01 09:35:35;;;;;;;0.95;0.20;;;;;;;16.26;28.57;101060.92;1681983;84;21005;-71
2022/05/01 09:38:25;;;;;;;0.35;0.25;;;;;;;16.21;28.50;101069.59;1681398;84;21083;-71
2022/05/01 09:40:57;;;;;;;1.42;0.35;;;;;;;16.20;28.61;101063.08;1682548;84;21072;-71
2022/05/01 09:43:43;;;;;;;3.60;0.70;;;;;;;16.30;28.70;101066.19;1662014;84;21612;-72
2022/05/01 09:46:21;;;;;;;0.72;0.30;;;;;;;16.43;28.57;101055.41;1680855;84;22386;-71
2022/05/01 09:49:06;;;;;;;0.78;0.53;;;;;;;16.59;27.97;101051.43;1697010;84;21552;-70
2022/05/01 09:51:35;;;;;;;0.78;0.42;;;;;;;16.67;27.84;101049.02;1670065;84;21036;-72
2022/05/01 09:54:04;;;;;;;0.40;0.40;;;;;;;16.72;27.78;101049.23;1662018;84;21264;-71
2022/05/01 09:57:01;;;;;;;1.30;0.40;;;;;;;16.75;27.75;101048.81;1699742;83;21038;-71
2022/05/01 09:59:28;;;;;;;2.67;0.57;;;;;;;16.81;27.62;101057.38;1709021;82;21336;-71
2022/05/01 10:02:02;;;;;;;0.62;0.25;;;;;;;16.90;27.33;101057.48;1690004;82;21019;-70
2022/05/01 10:04:31;;;;;;;2.33;0.60;;;;;;;16.96;26.78;101054.99;1697263;83;21063;-73
2022/05/01 10:06:58;;;;;;;2.72;0.30;;;;;;;16.97;27.06;101048.55;1685304;84;21072;-71
2022/05/01 10:09:28;;;;;;;2.10;0.55;;;;;;;17.00;27.17;101056.22;1646007;86;21163;-70
2022/05/01 10:11:58;;;;;;;0.85;0.53;;;;;;;17.09;27.01;101043.64;1692407;84;21090;-71
2022/05/01 10:14:29;;;;;;;2.65;1.10;;;;;;;17.26;26.95;101039.92;1709888;82;21057;-72
2022/05/01 10:16:57;;;;;;;2.85;1.00;;;;;;;17.36;26.14;101041.33;1710753;82;21042;-71
2022/05/01 10:19:24;;;;;;;1.27;0.70;;;;;;;17.22;25.87;101027.11;1715417;82;21075;-73
2022/05/01 10:21:53;;;;;;;0.80;0.50;;;;;;;17.08;26.03;101027.69;1729343;82;21062;-71
2022/05/01 10:24:20;;;;;;;1.27;0.57;;;;;;;17.08;25.68;101027.19;1681691;84;21048;-71
2022/05/01 10:27:22;;;;;;;2.30;0.45;;;;;;;17.06;25.62;101039.19;1654720;84;21044;-72
2022/05/01 10:33:00;;;;;;;1.95;0.60;;;;;;;16.96;25.68;101029.41;1680360;84;21119;-72
2022/05/01 10:36:21;;;;;;;1.95;0.75;;;;;;;16.97;25.78;101029.20;1672121;83;21064;-71
2022/05/01 10:39:09;;;;;;;1.37;0.90;;;;;;;17.02;25.82;101030.71;1671241;84;21081;-72
2022/05/01 10:41:45;;;;;;;1.75;1.47;;;;;;;16.98;25.99;101024.11;1651977;84;21104;-70
2022/05/01 10:44:36;;;;;;;1.82;1.72;;;;;;;16.93;26.37;101018.03;1671075;84;21168;-71
2022/05/01 10:47:18;;;;;;;4.53;2.67;;;;;;;16.96;26.43;101001.95;1666340;84;21103;-72
2022/05/01 10:49:47;;;;;;;2.98;2.10;;;;;;;16.96;26.28;101001.13;1659682;84;21102;-72
2022/05/01 10:52:23;;;;;;;1.70;1.60;;;;;;;16.92;26.42;101005.59;1651505;84;21105;-70
2022/05/01 10:54:53;;;;;;;3.12;1.27;;;;;;;16.95;26.89;101002.16;1671068;84;21483;-71
2022/05/01 10:57:22;;;;;;;2.42;1.40;;;;;;;17.02;26.58;101005.12;1664832;84;21180;-71
2022/05/01 10:59:50;;;;;;;4.62;2.42;;;;;;;17.00;26.26;100999.13;1670992;84;21029;-71
2022/05/01 11:02:35;;;;;;;3.05;1.85;;;;;;;16.95;26.27;101006.20;1691130;83;21029;-72
2022/05/01 11:05:03;;;;;;;3.22;2.33;;;;;;;16.86;26.39;101002.42;1699928;83;21321;-72
2022/05/01 11:07:33;;;;;;;5.67;2.60;;;;;;;16.81;26.54;101002.19;1693774;83;21185;-72
2022/05/01 11:10:00;;;;;;;1.87;1.50;;;;;;;16.79;26.32;101006.14;1693179;83;21116;-71
2022/05/01 11:12:32;;;;;;;5.55;1.95;;;;;;;16.76;26.49;101004.69;1687844;83;21108;-72
2022/05/01 11:15:01;;;;;;;4.33;2.35;;;;;;;16.70;26.54;100996.94;1681936;84;21133;-70
2022/05/01 11:17:44;;;;;;;6.55;1.82;;;;;;;16.68;26.57;100996.86;1701805;84;21069;-71
2022/05/01 11:20:25;;;;;;;5.37;2.12;;;;;;;16.64;26.75;100984.34;1698551;84;21092;-71
2022/05/01 11:22:56;;;;;;;4.90;2.65;;;;;;;16.62;26.83;100990.98;1688372;84;21047;-70
2022/05/01 11:25:33;;;;;;;2.40;2.20;;;;;;;16.57;26.97;100988.09;1681283;84;21512;-71
2022/05/01 11:27:59;;;;;;;6.62;3.05;;;;;;;16.60;27.08;100985.81;1680554;84;21120;-73
2022/05/01 11:30:38;;;;;;;5.87;3.00;;;;;;;16.67;27.06;100981.23;1681205;84;21033;-71
2022/05/01 11:33:10;;;;;;;3.47;2.20;;;;;;;16.73;27.11;100980.38;1680218;84;21107;-72
2022/05/01 11:36:01;;;;;;;3.65;1.87;;;;;;;16.81;26.88;100986.03;1693859;84;21534;-72
2022/05/01 11:38:39;;;;;;;1.67;1.00;;;;;;;16.82;26.62;100970.23;1710671;83;21011;-72
2022/05/01 11:41:07;;;;;;;2.08;1.50;;;;;;;16.81;26.88;100969.88;1708353;84;21033;-73
2022/05/01 11:43:36;;;;;;;2.58;1.17;;;;;;;16.82;26.69;100970.23;1693293;83;21257;-72
2022/05/01 11:46:04;;;;;;;4.92;1.52;;;;;;;16.48;26.90;100909.46;1697590;83;21031;-72
2022/05/01 11:48:32;;;;;;;3.30;1.72;;;;;;;16.90;26.42;100974.02;1681193;84;21063;-72
2022/05/01 11:50:58;;;;;;;3.65;1.25;;;;;;;16.89;26.25;100969.66;1681984;84;21115;-72
2022/05/01 11:53:29;;;;;;;1.57;1.05;;;;;;;16.84;26.44;100974.03;1644738;86;21082;-72
2022/05/01 12:04:34;;;;;;;1.60;1.15;;;;;;;16.67;26.81;100965.59;1682514;84;21111;-72
2022/05/01 12:07:16;;;;;;;3.27;1.27;;;;;;;16.69;26.99;100967.57;1681461;84;21000;-73
2022/05/01 12:09:46;;;;;;;4.83;1.45;;;;;;;16.71;26.94;100969.53;1681345;84;21055;-74